San Ardo, CA (93450)

8:31 PM PDT on July 29, 2016 (GMT -0700)
South of San Ardo | | Change Station

Elev 600 ft 35.97 °N, 120.90 °W | Updated 31 seconds ago

Clear
Clear
69.3 °F
Feels Like 69.3 °F
N
0.0
Wind Variable Wind from NNE
Gusts 0.0 mph

Today
High -- | Low -- °F
--% Chance of Precip.
Yesterday
High -- | Low -- °F
Precip. -- in
Pressure 29.76 in
Visibility 8.0 miles
Clouds Clear
Dew Point 56 °F
Humidity 63%
Rainfall 0.00 in
Snow Depth Not available.
6:09 AM 8:10 PM
Waning Crescent, 17% visible
METAR KPRB 300253Z AUTO 20009KT 8SM CLR 27/08 A2978 RMK AO2 SLP077 T02720078 53015 TSNO
Pressure 29.76 in
Visibility 8.0 miles
Clouds Clear
Dew Point 56 °F
Humidity 63%
Rainfall 0.00 in
Snow Depth Not available.
6:09 AM 8:10 PM
Waning Crescent, 17% visible
METAR KPRB 300253Z AUTO 20009KT 8SM CLR 27/08 A2978 RMK AO2 SLP077 T02720078 53015 TSNO

10-Day Weather Forecast

Almanac

Astronomy

Jul. 29, 2016 Rise Set
Actual Time
Civil Twilight
Nautical Twilight
Astronomical Twilight
Moon
Length of Visible Light
Length of Day
Tomorrow will be .
, % of the Moon is Illuminated

Today's Extremes

State Highs State Lows

Community

WunderPhotos

Upload Photos

1,928,500 photos uploaded!

WunderBlog® & News

Nearby

Air Quality

  Air Quality AQ Index Pollutant
Not available.

Snow Depth

Station Depth Elevation

Earthquake Activity

City Distance Mag. Time & Date
Minimum magnitude displayed is 2.5.

Coastal Water Temperatures

Place Temperature

Stations

Nearby Weather Stations

Station Location Temp. Windchill Dew Point Humidity Wind Precip. Elev Updated Type
                   

Watches & Warnings

There are currently no watches in effect.